createdAt,value
2023-04-22T04:00:27.609Z,9.20
2023-04-22T04:02:55.993Z,9.30
2023-04-22T04:05:24.761Z,9.20
2023-04-22T04:07:53.018Z,9.30
2023-04-22T04:10:21.301Z,9.30
2023-04-22T04:12:49.535Z,9.30
2023-04-22T04:15:18.887Z,9.30
2023-04-22T04:17:48.544Z,9.30
2023-04-22T04:20:17.398Z,9.30
2023-04-22T04:22:46.317Z,9.40
2023-04-22T04:25:14.529Z,9.40
2023-04-22T04:27:42.778Z,9.40
2023-04-22T04:30:11.963Z,9.40
2023-04-22T04:32:40.189Z,9.50
2023-04-22T04:35:12.963Z,9.50
2023-04-22T04:37:41.396Z,9.60
2023-04-22T04:40:12.098Z,9.60
2023-04-22T04:42:40.572Z,9.60
2023-04-22T04:45:10.222Z,9.70
2023-04-22T04:47:39.003Z,9.80
2023-04-22T04:50:09.843Z,9.80
2023-04-22T04:52:38.132Z,9.90
2023-04-22T04:55:07.078Z,10.00
2023-04-22T04:57:37.229Z,10.10
2023-04-22T05:00:08.434Z,10.20
2023-04-22T05:02:36.925Z,10.30
2023-04-22T05:05:06.604Z,10.30
2023-04-22T05:07:36.503Z,10.40
2023-04-22T05:10:06.024Z,10.50
2023-04-22T05:12:34.273Z,10.60
2023-04-22T05:15:02.826Z,10.70
2023-04-22T05:17:31.141Z,10.80
2023-04-22T05:19:59.327Z,10.80
2023-04-22T05:22:28.027Z,10.90
2023-04-22T05:24:57.581Z,11.10
2023-04-22T05:27:25.891Z,11.20
2023-04-22T05:29:54.068Z,11.30
2023-04-22T05:32:22.463Z,11.40
2023-04-22T05:34:50.814Z,11.50
2023-04-22T05:37:19.048Z,11.60
2023-04-22T05:39:47.272Z,11.70
2023-04-22T05:42:16.943Z,11.80
2023-04-22T05:44:45.181Z,11.90
2023-04-22T05:47:13.484Z,12.00
2023-04-22T05:49:42.055Z,12.10
2023-04-22T05:52:10.561Z,12.20
2023-04-22T05:54:39.045Z,12.30
2023-04-22T05:57:07.706Z,12.40
2023-04-22T05:59:37.371Z,12.50
2023-04-22T06:02:05.687Z,12.60
2023-04-22T06:04:37.186Z,12.70
2023-04-22T06:07:06.047Z,12.80
2023-04-22T06:09:34.287Z,12.90
2023-04-22T06:12:03.064Z,13.00
2023-04-22T06:14:31.312Z,13.10
2023-04-22T06:17:00.850Z,13.20
2023-04-22T06:19:29.217Z,13.30
2023-04-22T06:21:57.527Z,13.40
2023-04-22T06:24:25.888Z,13.40
2023-04-22T06:26:54.078Z,13.50
2023-04-22T06:29:22.667Z,13.60
2023-04-22T06:31:50.936Z,13.80
2023-04-22T06:34:20.906Z,13.90
2023-04-22T06:36:49.130Z,14.00
2023-04-22T06:39:17.330Z,14.10
2023-04-22T06:41:45.519Z,14.20
2023-04-22T06:44:13.704Z,14.40
2023-04-22T06:46:42.008Z,14.50
2023-04-22T06:49:10.238Z,14.60
2023-04-22T06:51:39.945Z,14.70
2023-04-22T06:54:08.145Z,14.90
2023-04-22T06:56:36.646Z,14.90
2023-04-22T06:59:04.957Z,15.00
2023-04-22T07:01:33.160Z,15.10
2023-04-22T07:04:01.569Z,15.30
2023-04-22T07:06:29.920Z,15.40
2023-04-22T07:08:59.491Z,15.50
2023-04-22T07:11:27.959Z,15.70
2023-04-22T07:13:56.192Z,15.80
2023-04-22T07:16:24.447Z,15.90
2023-04-22T07:18:52.656Z,16.00
2023-04-22T07:21:21.000Z,16.10
2023-04-22T07:23:49.323Z,16.20
2023-04-22T07:26:19.099Z,16.30
2023-04-22T07:28:47.320Z,16.40
2023-04-22T07:31:16.098Z,16.50
2023-04-22T07:33:44.593Z,16.60
2023-04-22T07:36:12.678Z,16.70
2023-04-22T07:38:41.005Z,16.80
2023-04-22T07:41:09.532Z,16.90
2023-04-22T07:43:39.097Z,17.00
2023-04-22T07:46:07.304Z,17.10
2023-04-22T07:48:36.533Z,17.20
2023-04-22T07:51:05.153Z,17.20
2023-04-22T07:53:33.350Z,17.30
2023-04-22T07:56:03.518Z,17.40
2023-04-22T07:58:31.755Z,17.50
2023-04-22T08:01:01.421Z,17.60
2023-04-22T08:03:30.305Z,17.70
2023-04-22T08:05:59.125Z,17.80
2023-04-22T08:08:28.698Z,17.80
2023-04-22T08:10:56.939Z,17.90
2023-04-22T08:13:26.067Z,18.00
2023-04-22T08:15:54.391Z,18.20
2023-04-22T08:18:24.038Z,18.20
2023-04-22T08:20:52.199Z,18.30
2023-04-22T08:23:21.353Z,18.30
2023-04-22T08:25:49.983Z,18.10
2023-04-22T08:28:18.315Z,18.00
2023-04-22T08:30:46.528Z,18.00
2023-04-22T08:33:14.851Z,18.00
2023-04-22T08:35:44.634Z,18.10
2023-04-22T08:38:12.845Z,18.10
2023-04-22T08:40:43.076Z,18.10
2023-04-22T08:43:12.402Z,18.20
2023-04-22T08:45:41.668Z,18.30
2023-04-22T08:48:11.597Z,18.30
2023-04-22T08:50:40.557Z,18.40
2023-04-22T08:53:10.359Z,18.40
2023-04-22T08:55:41.058Z,18.40
2023-04-22T08:58:09.685Z,18.40
2023-04-22T09:00:38.035Z,18.60
2023-04-22T09:03:08.791Z,18.80
2023-04-22T09:05:41.635Z,19.00
2023-04-22T09:08:12.054Z,19.10
2023-04-22T09:10:40.965Z,19.20
2023-04-22T09:13:09.501Z,19.20
2023-04-22T09:15:37.966Z,19.30
2023-04-22T09:18:06.534Z,19.40
2023-04-22T09:20:34.758Z,19.50
2023-04-22T09:23:05.842Z,19.50
2023-04-22T09:25:36.450Z,19.50
2023-04-22T09:28:04.807Z,19.60
2023-04-22T09:30:36.524Z,19.70
2023-04-22T09:33:07.064Z,19.90
2023-04-22T09:35:38.575Z,20.10
2023-04-22T09:38:09.248Z,20.10
2023-04-22T09:40:44.267Z,20.10
2023-04-22T09:43:13.055Z,20.20
2023-04-22T09:45:43.538Z,20.30
2023-04-22T09:48:13.847Z,20.30
2023-04-22T09:50:46.111Z,20.40
2023-04-22T09:53:17.205Z,20.60
2023-04-22T09:55:49.253Z,20.80
2023-04-22T09:58:20.778Z,20.90
2023-04-22T10:00:52.980Z,20.90
2023-04-22T10:03:22.365Z,21.00
2023-04-22T10:05:51.081Z,21.20
2023-04-22T10:08:19.291Z,21.60
2023-04-22T10:10:48.875Z,21.80
2023-04-22T10:13:17.159Z,22.00
2023-04-22T10:15:52.862Z,22.20
2023-04-22T10:18:26.968Z,22.50
2023-04-22T10:20:57.756Z,22.70
2023-04-22T10:23:26.568Z,22.90
2023-04-22T10:25:57.540Z,23.00
2023-04-22T10:28:30.744Z,23.30
2023-04-22T10:30:59.159Z,23.70
2023-04-22T10:33:41.262Z,23.90
2023-04-22T10:36:17.439Z,23.90
2023-04-22T10:39:17.625Z,24.10
2023-04-22T10:41:54.252Z,24.40
2023-04-22T10:44:24.323Z,24.70
2023-04-22T10:47:02.188Z,24.80
2023-04-22T10:49:34.802Z,24.90
2023-04-22T10:52:05.001Z,24.90
2023-04-22T10:55:02.494Z,25.10
2023-04-22T10:57:42.769Z,25.40
2023-04-22T11:00:41.821Z,25.30
2023-04-22T11:03:17.959Z,25.20
2023-04-22T11:05:47.139Z,25.30
2023-04-22T11:08:21.746Z,25.60
2023-04-22T11:10:52.396Z,26.10
2023-04-22T11:13:23.356Z,26.20
2023-04-22T11:15:55.451Z,26.40
2023-04-22T11:18:26.135Z,26.30
2023-04-22T11:20:55.376Z,26.60
2023-04-22T11:23:27.000Z,26.80
2023-04-22T11:26:00.313Z,26.80
2023-04-22T11:28:30.383Z,26.90
2023-04-22T11:31:08.441Z,26.90
2023-04-22T11:33:39.026Z,27.30
2023-04-22T11:36:11.687Z,27.80
2023-04-22T11:38:40.242Z,28.10
2023-04-22T11:41:08.457Z,28.40
2023-04-22T11:43:48.542Z,29.10
2023-04-22T11:46:16.873Z,30.10
2023-04-22T11:48:45.635Z,30.50
2023-04-22T11:51:14.136Z,30.80
2023-04-22T11:53:51.946Z,31.20
2023-04-22T11:56:22.434Z,31.80
2023-04-22T11:58:52.101Z,31.70
2023-04-22T12:01:20.346Z,32.30
2023-04-22T12:03:50.413Z,33.00
2023-04-22T12:06:18.854Z,33.30
2023-04-22T12:08:47.428Z,33.80
2023-04-22T12:11:15.693Z,34.20
2023-04-22T12:13:47.272Z,34.60
2023-04-22T12:16:21.365Z,35.80
2023-04-22T12:18:51.788Z,36.90
2023-04-22T12:21:24.111Z,36.90
2023-04-22T12:23:54.908Z,36.40
2023-04-22T12:26:26.919Z,36.30
2023-04-22T12:28:57.912Z,35.80
2023-04-22T12:31:28.820Z,35.80
2023-04-22T12:33:57.571Z,36.70
2023-04-22T12:36:26.144Z,37.20
2023-04-22T12:38:54.666Z,37.30
2023-04-22T12:41:23.565Z,37.00
2023-04-22T12:43:52.480Z,37.10
2023-04-22T12:46:21.027Z,36.90
2023-04-22T12:48:50.604Z,36.80
2023-04-22T12:51:18.888Z,37.00
2023-04-22T12:53:48.021Z,37.80
2023-04-22T12:56:16.394Z,38.20
2023-04-22T12:58:44.623Z,39.10
2023-04-22T13:01:12.889Z,39.90
2023-04-22T13:03:41.251Z,40.50
2023-04-22T13:06:11.274Z,40.30
2023-04-22T13:08:39.504Z,41.10
2023-04-22T13:11:07.726Z,41.80
2023-04-22T13:13:36.117Z,40.80
2023-04-22T13:16:04.375Z,40.60
2023-04-22T13:18:32.560Z,40.90
2023-04-22T13:21:00.718Z,41.20
2023-04-22T13:23:30.785Z,41.60
2023-04-22T13:25:58.918Z,42.00
2023-04-22T13:28:27.149Z,42.50
2023-04-22T13:30:55.845Z,43.60
2023-04-22T13:33:24.035Z,44.80
2023-04-22T13:35:52.337Z,45.00
2023-04-22T13:38:20.664Z,44.80
2023-04-22T13:40:50.228Z,44.70
2023-04-22T13:43:18.402Z,45.10
2023-04-22T13:45:48.286Z,45.10
2023-04-22T13:48:16.574Z,45.70
2023-04-22T13:50:44.758Z,45.50
2023-04-22T13:53:14.133Z,43.70
2023-04-22T13:55:43.243Z,43.00
2023-04-22T13:58:12.783Z,42.60
2023-04-22T14:00:41.324Z,43.20
2023-04-22T14:03:09.725Z,43.50
2023-04-22T14:05:38.101Z,42.90
2023-04-22T14:08:06.402Z,43.00
2023-04-22T14:10:34.814Z,42.50
2023-04-22T14:13:03.049Z,41.60
2023-04-22T14:15:32.609Z,40.90
2023-04-22T14:18:00.843Z,41.50
2023-04-22T14:20:29.024Z,42.20
2023-04-22T14:22:57.178Z,42.50
2023-04-22T14:25:25.403Z,43.20
2023-04-22T14:27:53.678Z,43.20
2023-04-22T14:30:22.272Z,42.50
2023-04-22T14:32:53.755Z,42.10
2023-04-22T14:35:22.390Z,42.70
2023-04-22T14:37:51.674Z,42.70
2023-04-22T14:40:20.069Z,43.30
2023-04-22T14:42:48.313Z,42.70
2023-04-22T14:45:16.458Z,41.90
2023-04-22T14:47:44.696Z,41.20
2023-04-22T14:50:14.222Z,41.50
2023-04-22T14:52:42.748Z,42.00
2023-04-22T14:55:22.081Z,42.40
2023-04-22T14:57:53.098Z,43.00
2023-04-22T15:00:21.813Z,42.90
2023-04-22T15:02:50.641Z,43.00
2023-04-22T15:05:22.167Z,41.70
2023-04-22T15:07:50.471Z,41.50
2023-04-22T15:10:18.721Z,41.50
2023-04-22T15:12:47.352Z,42.20
2023-04-22T15:15:16.128Z,42.00
2023-04-22T15:17:45.337Z,42.10
2023-04-22T15:20:14.503Z,41.80
2023-04-22T15:22:45.888Z,42.00
2023-04-22T15:25:15.490Z,41.50
2023-04-22T15:27:45.070Z,40.70
2023-04-22T15:30:14.402Z,40.00
2023-04-22T15:32:42.578Z,39.50
2023-04-22T15:35:11.837Z,40.40
2023-04-22T15:37:40.692Z,40.20
2023-04-22T15:40:11.021Z,39.90
2023-04-22T15:42:39.235Z,39.80
2023-04-22T15:45:08.950Z,40.00
2023-04-22T15:47:38.289Z,39.30
2023-04-22T15:50:09.424Z,39.00
2023-04-22T15:52:39.211Z,38.50
2023-04-22T15:55:10.134Z,38.20
2023-04-22T15:57:38.317Z,37.60
2023-04-22T16:00:13.005Z,37.50
2023-04-22T16:02:43.108Z,37.60
2023-04-22T16:05:12.533Z,37.30
2023-04-22T16:07:41.197Z,37.20
2023-04-22T16:10:12.150Z,37.40
2023-04-22T16:12:40.355Z,37.90
2023-04-22T16:15:11.473Z,38.00
2023-04-22T16:17:40.044Z,37.80
2023-04-22T16:20:10.757Z,37.80
2023-04-22T16:22:39.190Z,37.60
2023-04-22T16:25:10.957Z,36.40
2023-04-22T16:27:39.417Z,35.90
2023-04-22T16:30:09.144Z,35.10
2023-04-22T16:32:37.539Z,34.80
2023-04-22T16:35:07.296Z,34.70
2023-04-22T16:37:36.685Z,34.40
2023-04-22T16:40:06.126Z,34.00
2023-04-22T16:42:36.735Z,33.60
2023-04-22T16:45:06.547Z,33.50
2023-04-22T16:47:34.790Z,33.50
2023-04-22T16:50:03.741Z,33.40
2023-04-22T16:52:31.988Z,33.00
2023-04-22T16:55:00.407Z,32.20
2023-04-22T16:57:28.785Z,31.10
2023-04-22T16:59:58.403Z,29.70
2023-04-22T17:02:26.708Z,28.50
2023-04-22T17:04:55.139Z,27.40
2023-04-22T17:07:23.294Z,26.50
2023-04-22T17:09:51.516Z,25.80
2023-04-22T17:12:19.820Z,25.30
2023-04-22T17:14:47.986Z,24.80
2023-04-22T17:17:17.500Z,24.30
2023-04-22T17:19:45.711Z,23.90
2023-04-22T17:22:13.877Z,23.50
2023-04-22T17:24:42.420Z,23.10
2023-04-22T17:27:14.651Z,22.90
2023-04-22T17:29:43.264Z,22.60
2023-04-22T17:32:11.678Z,22.40
2023-04-22T17:34:41.688Z,22.20
2023-04-22T17:37:10.193Z,22.10
2023-04-22T17:39:39.790Z,21.90
2023-04-22T17:42:08.121Z,21.90
2023-04-22T17:44:36.902Z,21.80
2023-04-22T17:47:06.795Z,21.70
2023-04-22T17:49:35.720Z,21.50
2023-04-22T17:52:05.681Z,21.40
2023-04-22T17:54:34.498Z,21.30
2023-04-22T17:57:03.092Z,21.10
2023-04-22T17:59:31.349Z,21.00
2023-04-22T18:02:01.441Z,20.80
2023-04-22T18:04:29.908Z,20.70
2023-04-22T18:06:58.113Z,20.60
2023-04-22T18:09:27.920Z,20.40
2023-04-22T18:11:58.588Z,20.30
2023-04-22T18:14:27.672Z,20.20
2023-04-22T18:16:56.030Z,20.10
2023-04-22T18:19:24.411Z,20.00
2023-04-22T18:21:59.624Z,19.80
2023-04-22T18:24:29.808Z,19.70
2023-04-22T18:26:58.032Z,19.50
2023-04-22T18:29:26.352Z,19.40
2023-04-22T18:31:54.637Z,19.30
2023-04-22T18:34:23.028Z,19.20
2023-04-22T18:36:51.599Z,19.10
2023-04-22T18:39:19.787Z,19.00
2023-04-22T18:41:49.660Z,18.90
2023-04-22T18:44:18.384Z,18.90
2023-04-22T18:46:46.606Z,18.80
2023-04-22T18:49:14.855Z,18.70
2023-04-22T18:51:43.017Z,18.60
2023-04-22T18:54:11.286Z,18.50
2023-04-22T18:56:39.492Z,18.50
2023-04-22T18:59:09.202Z,18.40
2023-04-22T19:01:37.527Z,18.40
2023-04-22T19:04:07.830Z,18.30
2023-04-22T19:06:36.311Z,18.20
2023-04-22T19:09:05.232Z,18.10
2023-04-22T19:11:33.598Z,18.00
2023-04-22T19:14:02.916Z,17.90
2023-04-22T19:16:32.588Z,17.80
2023-04-22T19:19:00.904Z,17.70
2023-04-22T19:21:29.977Z,17.70
2023-04-22T19:23:58.738Z,17.60
2023-04-22T19:26:28.906Z,17.50
2023-04-22T19:28:57.198Z,17.50
2023-04-22T19:31:25.643Z,17.40
2023-04-22T19:33:55.314Z,17.40
2023-04-22T19:36:23.696Z,17.30
2023-04-22T19:38:52.170Z,17.30
2023-04-22T19:41:20.344Z,17.30
2023-04-22T19:43:48.943Z,17.20
2023-04-22T19:46:17.123Z,17.20
2023-04-22T19:48:46.594Z,17.10
2023-04-22T19:51:16.917Z,17.10
2023-04-22T19:53:46.331Z,17.00
2023-04-22T19:56:15.715Z,16.90
2023-04-22T19:58:44.665Z,16.90
2023-04-22T20:01:13.287Z,16.80
2023-04-22T20:03:42.388Z,16.80
2023-04-22T20:06:13.446Z,16.70
2023-04-22T20:08:44.476Z,16.70
2023-04-22T20:11:13.311Z,16.60
2023-04-22T20:13:42.304Z,16.60
2023-04-22T20:16:11.692Z,16.50
2023-04-22T20:18:40.305Z,16.50
2023-04-22T20:21:10.025Z,16.40
2023-04-22T20:23:40.961Z,16.40
2023-04-22T20:26:10.869Z,16.40
2023-04-22T20:28:46.502Z,16.40
2023-04-22T20:31:19.019Z,16.30
2023-04-22T20:33:47.744Z,16.30
2023-04-22T20:36:19.527Z,16.30
2023-04-22T20:38:50.946Z,16.30
2023-04-22T20:41:21.999Z,16.20
2023-04-22T20:43:50.502Z,16.20
2023-04-22T20:46:21.439Z,16.10
2023-04-22T20:48:50.936Z,16.10
2023-04-22T20:51:19.133Z,16.10
2023-04-22T20:53:47.431Z,16.00
2023-04-22T20:56:15.645Z,16.00
2023-04-22T20:58:45.219Z,15.90
